Time;durP1;ratioP1;P1;durP2;ratioP2;P2;SDS_P1;SDS_P2;PMS_P1;PMS_P2;Temp;Humidity;BMP_temperature;BMP_pressure;BME280_temperature;BME280_humidity;BME280_pressure;Samples;Min_cycle;Max_cycle;Signal;HPM_P1;HPM_P2
2023/03/16 00:02:23;;;;;;;;;;;27.40;99.20;;;;;;5042917;28;19928;-70
2023/03/16 00:04:49;;;;;;;;;;;27.40;99.20;;;;;;5038098;28;19920;-68
2023/03/16 00:07:16;;;;;;;;;;;27.50;98.40;;;;;;5040823;28;20007;-67
2023/03/16 00:09:43;;;;;;;;;;;27.60;98.10;;;;;;5038659;28;19909;-68
2023/03/16 00:12:15;;;;;;;;;;;27.60;97.40;;;;;;5047630;28;19956;-71
2023/03/16 00:14:48;;;;;;;;;;;27.80;97.50;;;;;;5039791;28;19913;-69
2023/03/16 00:17:18;;;;;;;;;;;28.00;96.80;;;;;;5040432;28;19928;-69
2023/03/16 00:19:53;;;;;;;;;;;28.10;96.50;;;;;;5039420;28;19915;-68
2023/03/16 00:22:27;;;;;;;;;;;28.20;96.20;;;;;;5043351;28;19913;-68
2023/03/16 00:24:54;;;;;;;;;;;28.40;96.10;;;;;;5037869;28;20059;-71
2023/03/16 00:27:21;;;;;;;;;;;28.60;95.60;;;;;;5040383;28;19912;-70
2023/03/16 00:29:54;;;;;;;;;;;28.80;95.00;;;;;;5039384;28;19923;-67
2023/03/16 00:32:22;;;;;;;;;;;28.90;93.20;;;;;;5040183;28;19915;-68
2023/03/16 00:34:50;;;;;;;;;;;28.90;93.00;;;;;;5038792;28;20271;-68
2023/03/16 00:37:18;;;;;;;;;;;29.10;93.20;;;;;;5040865;28;19917;-68
2023/03/16 00:39:46;;;;;;;;;;;29.20;92.40;;;;;;5039494;28;19947;-69
2023/03/16 00:42:13;;;;;;;;;;;29.40;92.30;;;;;;5057896;28;19909;-67
2023/03/16 00:44:43;;;;;;;;;;;29.50;92.00;;;;;;5059147;28;20217;-66
2023/03/16 00:47:13;;;;;;;;;;;29.60;91.20;;;;;;5074990;28;20724;-69
2023/03/16 00:49:41;;;;;;;;;;;29.90;91.40;;;;;;5048220;28;19924;-71
2023/03/16 00:52:08;;;;;;;;;;;30.00;90.70;;;;;;5055339;28;19931;-71
2023/03/16 00:54:35;;;;;;;;;;;30.10;90.70;;;;;;5041422;28;20391;-66
2023/03/16 00:57:02;;;;;;;;;;;30.20;89.60;;;;;;5039277;28;20371;-68
2023/03/16 00:59:30;;;;;;;;;;;30.30;90.10;;;;;;5040154;28;20315;-68
2023/03/16 01:01:56;;;;;;;;;;;30.50;87.90;;;;;;5040773;28;19912;-68
2023/03/16 01:04:23;;;;;;;;;;;30.60;88.80;;;;;;5039658;28;19912;-68
2023/03/16 01:06:50;;;;;;;;;;;30.70;87.20;;;;;;5038253;28;19924;-68
2023/03/16 01:09:17;;;;;;;;;;;30.90;87.60;;;;;;5038779;28;20404;-68
2023/03/16 01:11:44;;;;;;;;;;;31.10;86.20;;;;;;5044541;28;19913;-70
2023/03/16 01:14:10;;;;;;;;;;;31.20;87.50;;;;;;5038384;28;19927;-68
2023/03/16 01:16:37;;;;;;;;;;;31.30;87.00;;;;;;5041535;28;20361;-70
2023/03/16 01:19:04;;;;;;;;;;;31.40;85.60;;;;;;5042660;28;19974;-68
2023/03/16 01:21:32;;;;;;;;;;;31.60;85.00;;;;;;5043615;28;19913;-72
2023/03/16 01:23:59;;;;;;;;;;;31.70;85.20;;;;;;5040830;28;19921;-71
2023/03/16 01:26:26;;;;;;;;;;;31.80;86.10;;;;;;5043371;28;20350;-69
2023/03/16 01:28:53;;;;;;;;;;;31.90;85.40;;;;;;5040979;28;20285;-69
2023/03/16 01:31:20;;;;;;;;;;;31.90;83.90;;;;;;5036169;28;19923;-73
2023/03/16 01:33:47;;;;;;;;;;;32.10;85.20;;;;;;5041758;28;20358;-69
2023/03/16 01:36:15;;;;;;;;;;;32.30;85.00;;;;;;5042064;28;20024;-68
2023/03/16 01:38:42;;;;;;;;;;;32.40;83.60;;;;;;5043016;28;19924;-69
2023/03/16 01:41:08;;;;;;;;;;;32.60;82.80;;;;;;5042692;28;19927;-67
2023/03/16 01:43:36;;;;;;;;;;;32.80;80.40;;;;;;5043338;28;20281;-67
2023/03/16 01:46:06;;;;;;;;;;;32.80;78.40;;;;;;5041505;28;19920;-70
2023/03/16 01:48:36;;;;;;;;;;;32.90;80.60;;;;;;5043249;28;19916;-68
2023/03/16 01:51:08;;;;;;;;;;;33.00;80.10;;;;;;5039007;28;19964;-69
2023/03/16 01:53:35;;;;;;;;;;;33.10;78.70;;;;;;5036919;28;19913;-67
2023/03/16 01:56:05;;;;;;;;;;;33.10;76.90;;;;;;5041143;28;19985;-69
2023/03/16 01:58:32;;;;;;;;;;;33.10;76.50;;;;;;5042848;28;19923;-69
2023/03/16 02:00:59;;;;;;;;;;;33.30;76.70;;;;;;5040724;28;19923;-69
2023/03/16 02:03:26;;;;;;;;;;;33.40;76.80;;;;;;5040908;28;19919;-70
2023/03/16 02:06:02;;;;;;;;;;;33.50;74.70;;;;;;5041576;28;19923;-68
2023/03/16 02:08:28;;;;;;;;;;;33.70;74.70;;;;;;5041565;28;20008;-68
2023/03/16 02:10:56;;;;;;;;;;;34.00;75.10;;;;;;5041430;28;19913;-68
2023/03/16 02:13:23;;;;;;;;;;;34.10;75.80;;;;;;5040795;28;19974;-68
2023/03/16 02:15:51;;;;;;;;;;;34.30;74.20;;;;;;5041478;28;20020;-68
2023/03/16 02:18:17;;;;;;;;;;;34.40;74.30;;;;;;5041293;28;20289;-68
2023/03/16 02:20:56;;;;;;;;;;;34.50;72.80;;;;;;5042269;28;19963;-69
2023/03/16 02:23:23;;;;;;;;;;;34.60;71.70;;;;;;5040810;28;19919;-70
2023/03/16 02:25:52;;;;;;;;;;;34.50;72.50;;;;;;5042324;28;19909;-70
2023/03/16 02:28:37;;;;;;;;;;;34.60;72.10;;;;;;5039043;28;20380;-69
2023/03/16 02:31:05;;;;;;;;;;;34.90;73.90;;;;;;5041680;28;19909;-67
2023/03/16 02:33:33;;;;;;;;;;;35.00;69.50;;;;;;5042838;28;19917;-69
2023/03/16 02:36:00;;;;;;;;;;;35.10;68.20;;;;;;5041828;28;19967;-69
2023/03/16 02:38:26;;;;;;;;;;;35.40;69.60;;;;;;5039723;28;20695;-69
2023/03/16 02:41:02;;;;;;;;;;;35.70;68.80;;;;;;5041801;28;19928;-70
2023/03/16 02:43:32;;;;;;;;;;;35.70;66.50;;;;;;5040722;28;19921;-68
2023/03/16 02:45:59;;;;;;;;;;;35.90;66.20;;;;;;5041735;28;19947;-68
2023/03/16 02:49:04;;;;;;;;;;;36.30;66.90;;;;;;5040313;28;20170;-69
2023/03/16 02:51:31;;;;;;;;;;;36.60;67.20;;;;;;5009277;28;19913;-68
2023/03/16 02:53:58;;;;;;;;;;;36.90;63.80;;;;;;5018762;28;19983;-70
2023/03/16 02:56:24;;;;;;;;;;;37.30;63.10;;;;;;5021497;28;19972;-70
2023/03/16 02:58:51;;;;;;;;;;;38.00;62.60;;;;;;5041961;28;19962;-68
2023/03/16 03:01:18;;;;;;;;;;;38.70;63.10;;;;;;5037239;28;19913;-69
2023/03/16 03:03:44;;;;;;;;;;;39.30;59.80;;;;;;5040367;28;19959;-72
2023/03/16 03:06:11;;;;;;;;;;;39.90;59.30;;;;;;5038678;28;20361;-69
2023/03/16 03:08:38;;;;;;;;;;;40.80;59.70;;;;;;5039671;28;20496;-67
2023/03/16 03:11:04;;;;;;;;;;;41.70;58.20;;;;;;5039123;28;19927;-70
2023/03/16 03:13:31;;;;;;;;;;;42.50;58.40;;;;;;5038456;28;19912;-71
2023/03/16 03:15:58;;;;;;;;;;;43.40;54.50;;;;;;5040807;28;20131;-75
2023/03/16 03:18:25;;;;;;;;;;;42.70;54.90;;;;;;5039942;28;19928;-71
2023/03/16 03:20:52;;;;;;;;;;;43.30;55.80;;;;;;5041625;28;19927;-69
2023/03/16 03:23:18;;;;;;;;;;;44.30;53.00;;;;;;5039524;28;19923;-69
2023/03/16 03:25:46;;;;;;;;;;;45.20;52.30;;;;;;5041024;28;19936;-69
2023/03/16 03:28:17;;;;;;;;;;;46.30;51.20;;;;;;5039585;28;19974;-72
2023/03/16 03:30:43;;;;;;;;;;;46.50;49.80;;;;;;5041003;28;19923;-69
2023/03/16 03:33:10;;;;;;;;;;;46.90;48.90;;;;;;5040759;28;19913;-67
2023/03/16 03:35:36;;;;;;;;;;;47.10;49.60;;;;;;5039412;28;19931;-69
2023/03/16 03:38:03;;;;;;;;;;;47.40;48.20;;;;;;5039564;28;19929;-70
2023/03/16 03:40:30;;;;;;;;;;;47.50;49.00;;;;;;5037690;28;19986;-69
2023/03/16 03:42:56;;;;;;;;;;;47.40;49.30;;;;;;5040037;28;19921;-70
2023/03/16 03:45:23;;;;;;;;;;;47.20;47.90;;;;;;5038553;28;19916;-70
2023/03/16 03:47:49;;;;;;;;;;;47.40;48.70;;;;;;5040781;28;19908;-71
2023/03/16 03:50:16;;;;;;;;;;;47.70;48.20;;;;;;5040193;28;19975;-70
2023/03/16 03:52:43;;;;;;;;;;;47.80;47.90;;;;;;5038816;28;19909;-71
2023/03/16 03:55:10;;;;;;;;;;;48.20;48.80;;;;;;5039306;28;19909;-69
2023/03/16 03:57:36;;;;;;;;;;;48.10;47.90;;;;;;5037682;28;20443;-68
2023/03/16 04:00:07;;;;;;;;;;;48.40;48.00;;;;;;5040288;28;20011;-71
2023/03/16 04:02:33;;;;;;;;;;;49.00;48.80;;;;;;5031178;28;20429;-70
2023/03/16 04:05:00;;;;;;;;;;;49.00;47.40;;;;;;5039882;28;19944;-71
2023/03/16 04:07:26;;;;;;;;;;;48.50;47.50;;;;;;5058773;28;20019;-71
2023/03/16 04:09:53;;;;;;;;;;;48.70;47.00;;;;;;5038031;28;19995;-69
2023/03/16 04:12:20;;;;;;;;;;;48.70;46.90;;;;;;5038845;28;19913;-72
2023/03/16 04:14:47;;;;;;;;;;;48.90;46.40;;;;;;5038955;28;19974;-69
2023/03/16 04:17:13;;;;;;;;;;;49.20;47.20;;;;;;5040280;28;19917;-71
2023/03/16 04:19:40;;;;;;;;;;;50.00;48.00;;;;;;5039310;28;20682;-69
2023/03/16 04:22:06;;;;;;;;;;;50.20;45.80;;;;;;5039151;28;20343;-71
2023/03/16 04:24:34;;;;;;;;;;;49.50;46.50;;;;;;5036958;28;20419;-71
2023/03/16 04:27:01;;;;;;;;;;;49.70;45.60;;;;;;5040025;28;20369;-71
2023/03/16 04:29:28;;;;;;;;;;;49.40;45.20;;;;;;5037558;28;19969;-72
2023/03/16 04:31:54;;;;;;;;;;;49.90;46.40;;;;;;5039989;28;21119;-69
2023/03/16 04:34:23;;;;;;;;;;;50.70;46.20;;;;;;5039337;28;19909;-69
2023/03/16 04:36:51;;;;;;;;;;;51.30;44.80;;;;;;5038021;28;19921;-69
2023/03/16 04:39:19;;;;;;;;;;;50.90;44.40;;;;;;5038073;28;19913;-69
2023/03/16 04:41:45;;;;;;;;;;;51.20;43.00;;;;;;5037920;28;19909;-70
2023/03/16 04:44:12;;;;;;;;;;;50.30;42.60;;;;;;5037637;28;19913;-70
2023/03/16 04:46:39;;;;;;;;;;;49.70;42.00;;;;;;5037469;28;19921;-70
2023/03/16 04:49:08;;;;;;;;;;;49.90;41.90;;;;;;5039026;28;19921;-73
2023/03/16 04:51:36;;;;;;;;;;;49.90;41.10;;;;;;5038853;28;20004;-70
2023/03/16 04:54:03;;;;;;;;;;;49.90;40.30;;;;;;5041159;28;19924;-70
2023/03/16 04:56:30;;;;;;;;;;;49.90;40.60;;;;;;5041726;28;19909;-70
2023/03/16 04:58:56;;;;;;;;;;;50.10;40.40;;;;;;5043418;28;20288;-67
2023/03/16 05:01:23;;;;;;;;;;;50.50;41.40;;;;;;5043010;28;20339;-69
2023/03/16 05:03:51;;;;;;;;;;;51.10;40.30;;;;;;5041711;28;19996;-69
2023/03/16 05:06:18;;;;;;;;;;;51.20;39.90;;;;;;5043992;28;19965;-71
2023/03/16 05:08:45;;;;;;;;;;;51.20;40.50;;;;;;5042013;28;19912;-71
2023/03/16 05:11:11;;;;;;;;;;;50.90;39.50;;;;;;5043782;28;19917;-70
2023/03/16 05:13:38;;;;;;;;;;;50.90;40.10;;;;;;5040660;28;19919;-68
2023/03/16 05:16:04;;;;;;;;;;;50.90;40.00;;;;;;5038284;28;20003;-67
2023/03/16 05:18:32;;;;;;;;;;;51.30;40.60;;;;;;5041967;28;19913;-72
2023/03/16 05:20:59;;;;;;;;;;;51.40;39.00;;;;;;5042935;28;19909;-72
2023/03/16 05:23:25;;;;;;;;;;;51.20;39.60;;;;;;5042391;28;20331;-68
2023/03/16 05:25:52;;;;;;;;;;;50.70;39.60;;;;;;5041068;28;20070;-68
2023/03/16 05:28:19;;;;;;;;;;;50.40;39.00;;;;;;5043297;28;20003;-68
2023/03/16 05:30:45;;;;;;;;;;;50.00;39.40;;;;;;5041900;28;20323;-70
2023/03/16 05:33:12;;;;;;;;;;;50.00;39.50;;;;;;5042885;28;19917;-67
2023/03/16 05:35:39;;;;;;;;;;;50.00;39.90;;;;;;5041597;28;19982;-69
2023/03/16 05:38:05;;;;;;;;;;;49.90;39.60;;;;;;5042405;28;19936;-67
2023/03/16 05:40:33;;;;;;;;;;;49.80;39.60;;;;;;5042613;28;20397;-70
2023/03/16 05:42:59;;;;;;;;;;;49.70;39.70;;;;;;5041825;28;19927;-68
2023/03/16 05:45:26;;;;;;;;;;;49.30;39.40;;;;;;5041839;28;19931;-68
2023/03/16 05:47:53;;;;;;;;;;;49.40;40.50;;;;;;5040719;28;19921;-67
2023/03/16 05:50:20;;;;;;;;;;;49.30;39.70;;;;;;5043411;28;20003;-69
2023/03/16 05:52:47;;;;;;;;;;;49.40;40.40;;;;;;5040236;28;19913;-67
2023/03/16 05:55:14;;;;;;;;;;;49.50;40.60;;;;;;5042217;28;19956;-68
2023/03/16 05:57:41;;;;;;;;;;;49.70;40.20;;;;;;5040082;28;19931;-69
2023/03/16 06:00:14;;;;;;;;;;;49.80;39.90;;;;;;5039156;28;20435;-67
2023/03/16 06:02:41;;;;;;;;;;;49.30;39.80;;;;;;5039635;28;20365;-69
2023/03/16 06:05:09;;;;;;;;;;;49.50;39.70;;;;;;5043625;28;19909;-68
2023/03/16 06:07:35;;;;;;;;;;;49.70;40.00;;;;;;5041927;28;20000;-66
2023/03/16 06:10:02;;;;;;;;;;;49.80;40.60;;;;;;5040219;28;19958;-66
2023/03/16 06:12:29;;;;;;;;;;;49.60;39.80;;;;;;5041937;28;19955;-68
2023/03/16 06:14:55;;;;;;;;;;;49.20;40.20;;;;;;5039030;28;19913;-67
2023/03/16 06:17:22;;;;;;;;;;;49.30;39.60;;;;;;5041278;28;19963;-69
2023/03/16 06:19:49;;;;;;;;;;;49.30;40.00;;;;;;5039019;28;19912;-69
2023/03/16 06:22:17;;;;;;;;;;;49.30;40.00;;;;;;5041380;28;19909;-69
2023/03/16 06:24:43;;;;;;;;;;;49.40;40.80;;;;;;5038826;28;19917;-68
2023/03/16 06:27:10;;;;;;;;;;;49.50;40.20;;;;;;5034687;28;19917;-69
2023/03/16 06:29:37;;;;;;;;;;;49.50;40.10;;;;;;5040531;28;19913;-67
2023/03/16 06:32:04;;;;;;;;;;;49.30;40.90;;;;;;5038316;28;19979;-72
2023/03/16 06:34:30;;;;;;;;;;;48.80;39.60;;;;;;5041312;28;19956;-70
2023/03/16 06:36:57;;;;;;;;;;;48.20;40.80;;;;;;5035872;28;19920;-69
2023/03/16 06:39:24;;;;;;;;;;;47.70;40.60;;;;;;5042168;28;19912;-67
2023/03/16 06:41:50;;;;;;;;;;;47.60;42.10;;;;;;5040422;28;19916;-68
2023/03/16 06:44:17;;;;;;;;;;;47.70;40.80;;;;;;5042466;28;19917;-69
2023/03/16 06:46:43;;;;;;;;;;;47.90;40.70;;;;;;5042433;28;20044;-68
2023/03/16 06:49:10;;;;;;;;;;;47.40;41.20;;;;;;5040511;28;20301;-69
2023/03/16 06:51:37;;;;;;;;;;;47.40;40.30;;;;;;5041837;28;19913;-69
2023/03/16 06:54:03;;;;;;;;;;;47.30;41.20;;;;;;5039840;28;19905;-69
2023/03/16 06:56:30;;;;;;;;;;;47.40;41.10;;;;;;5042809;28;19913;-69
2023/03/16 06:58:57;;;;;;;;;;;47.30;40.70;;;;;;5039749;28;20282;-70
2023/03/16 07:01:24;;;;;;;;;;;47.00;41.30;;;;;;5041866;28;20318;-70
2023/03/16 07:03:50;;;;;;;;;;;46.70;41.10;;;;;;5040751;28;19915;-69
2023/03/16 07:06:17;;;;;;;;;;;46.10;41.20;;;;;;5073937;28;19927;-69
2023/03/16 07:08:44;;;;;;;;;;;45.70;41.50;;;;;;5041996;28;19915;-67
2023/03/16 07:11:10;;;;;;;;;;;45.10;42.00;;;;;;5039387;28;19919;-67
2023/03/16 07:13:37;;;;;;;;;;;44.20;41.90;;;;;;5040814;28;20354;-67
2023/03/16 07:16:04;;;;;;;;;;;43.20;42.50;;;;;;5038475;28;20007;-67
2023/03/16 07:18:31;;;;;;;;;;;42.10;42.90;;;;;;5041014;28;19908;-66
2023/03/16 07:20:58;;;;;;;;;;;41.00;43.70;;;;;;5039246;28;19913;-68
2023/03/16 07:23:25;;;;;;;;;;;40.00;44.40;;;;;;5041825;28;19916;-67
2023/03/16 07:25:52;;;;;;;;;;;39.20;45.60;;;;;;5040377;28;19909;-69
2023/03/16 07:28:19;;;;;;;;;;;38.50;45.50;;;;;;5027021;28;20844;-69
2023/03/16 07:30:46;;;;;;;;;;;38.00;46.70;;;;;;5020823;28;20314;-68
2023/03/16 07:33:13;;;;;;;;;;;37.60;46.70;;;;;;5019187;28;19910;-69
2023/03/16 07:35:40;;;;;;;;;;;37.20;48.00;;;;;;5069370;28;20010;-70
2023/03/16 07:38:09;;;;;;;;;;;36.90;47.50;;;;;;5040154;28;19916;-69
2023/03/16 07:40:36;;;;;;;;;;;36.60;48.40;;;;;;5041080;28;19921;-70
2023/03/16 07:43:03;;;;;;;;;;;36.40;48.00;;;;;;5035529;28;19913;-69
2023/03/16 07:45:30;;;;;;;;;;;36.20;48.70;;;;;;5038696;28;19909;-68
2023/03/16 07:47:57;;;;;;;;;;;35.90;49.80;;;;;;5039607;28;19943;-68
2023/03/16 07:50:23;;;;;;;;;;;35.60;49.30;;;;;;5038937;28;19909;-68
2023/03/16 07:52:50;;;;;;;;;;;35.50;49.50;;;;;;5039743;28;19916;-66
2023/03/16 07:55:17;;;;;;;;;;;35.20;49.90;;;;;;5038013;28;20019;-67
2023/03/16 07:57:46;;;;;;;;;;;35.10;50.60;;;;;;5040088;28;19917;-68
2023/03/16 08:00:14;;;;;;;;;;;34.90;51.00;;;;;;5038126;28;19909;-68
2023/03/16 08:02:40;;;;;;;;;;;34.80;52.40;;;;;;5039950;28;19932;-68
2023/03/16 08:05:11;;;;;;;;;;;34.60;52.50;;;;;;5038734;28;19962;-71
2023/03/16 08:07:38;;;;;;;;;;;34.40;54.20;;;;;;5039576;28;19927;-68
2023/03/16 08:10:05;;;;;;;;;;;34.20;52.30;;;;;;5038728;28;19913;-69
2023/03/16 08:12:32;;;;;;;;;;;34.10;52.80;;;;;;5039123;28;19993;-69
2023/03/16 08:14:59;;;;;;;;;;;33.90;54.50;;;;;;5038100;28;19913;-67
2023/03/16 08:17:25;;;;;;;;;;;33.70;54.90;;;;;;5037652;28;19920;-68
2023/03/16 08:19:52;;;;;;;;;;;33.50;54.90;;;;;;5039260;28;19916;-70
2023/03/16 08:22:19;;;;;;;;;;;33.40;56.00;;;;;;5036869;28;19920;-70
2023/03/16 08:24:46;;;;;;;;;;;33.20;56.20;;;;;;5038001;28;19909;-69
2023/03/16 08:27:14;;;;;;;;;;;33.00;58.20;;;;;;5035856;28;20266;-67
2023/03/16 08:29:41;;;;;;;;;;;32.80;57.80;;;;;;5039015;28;19920;-67
2023/03/16 08:32:08;;;;;;;;;;;32.70;58.00;;;;;;5037621;28;20312;-70
2023/03/16 08:34:35;;;;;;;;;;;32.50;58.40;;;;;;5038485;28;20408;-69
2023/03/16 08:37:01;;;;;;;;;;;32.30;59.90;;;;;;5038938;28;19912;-69
2023/03/16 08:39:28;;;;;;;;;;;32.10;60.30;;;;;;4896804;28;3529023;-69
2023/03/16 08:41:56;;;;;;;;;;;32.00;57.80;;;;;;5022673;28;20402;-69
2023/03/16 08:44:24;;;;;;;;;;;31.90;58.70;;;;;;5038750;28;19912;-67
2023/03/16 08:46:51;;;;;;;;;;;31.70;59.00;;;;;;5037964;28;19937;-68
2023/03/16 08:49:19;;;;;;;;;;;31.70;58.20;;;;;;5038477;28;19916;-67
2023/03/16 08:51:46;;;;;;;;;;;31.60;59.30;;;;;;5040358;28;19913;-68
2023/03/16 08:54:14;;;;;;;;;;;31.60;59.00;;;;;;5038229;28;20566;-68
2023/03/16 08:56:41;;;;;;;;;;;31.50;58.10;;;;;;5036844;28;20503;-68
2023/03/16 08:59:07;;;;;;;;;;;31.40;57.90;;;;;;5034778;28;19982;-69
2023/03/16 09:01:34;;;;;;;;;;;31.40;58.40;;;;;;5039292;28;19991;-69
2023/03/16 09:04:02;;;;;;;;;;;31.30;57.90;;;;;;5040879;28;19919;-69
2023/03/16 09:06:29;;;;;;;;;;;31.20;56.20;;;;;;5037890;28;19928;-68
2023/03/16 09:08:56;;;;;;;;;;;31.20;55.40;;;;;;5040922;28;20281;-69
2023/03/16 09:11:24;;;;;;;;;;;31.20;55.00;;;;;;5039074;28;19920;-69
2023/03/16 09:13:51;;;;;;;;;;;31.30;55.10;;;;;;5020846;28;19953;-68
2023/03/16 09:16:18;;;;;;;;;;;31.30;55.10;;;;;;5019819;28;20353;-68
2023/03/16 09:18:45;;;;;;;;;;;31.30;56.50;;;;;;5040026;28;20063;-69
2023/03/16 09:21:15;;;;;;;;;;;31.20;55.40;;;;;;5040139;28;20790;-68
2023/03/16 09:23:42;;;;;;;;;;;31.20;55.40;;;;;;5040490;28;20432;-67
2023/03/16 09:26:11;;;;;;;;;;;31.20;55.70;;;;;;5040473;28;19913;-69
2023/03/16 09:28:39;;;;;;;;;;;31.10;55.40;;;;;;5037988;28;19909;-67
2023/03/16 09:31:06;;;;;;;;;;;31.10;56.00;;;;;;5040491;28;19915;-69
2023/03/16 09:33:34;;;;;;;;;;;31.10;56.70;;;;;;5038203;28;19909;-70
2023/03/16 09:36:01;;;;;;;;;;;31.00;56.60;;;;;;5038775;28;19913;-69
2023/03/16 09:38:29;;;;;;;;;;;30.90;57.00;;;;;;5037229;28;19913;-70
2023/03/16 09:40:59;;;;;;;;;;;30.90;58.20;;;;;;5042272;28;19921;-67
2023/03/16 09:43:32;;;;;;;;;;;30.70;57.80;;;;;;5042172;28;19913;-68
2023/03/16 09:46:04;;;;;;;;;;;30.70;56.70;;;;;;5043439;28;19913;-68
2023/03/16 09:48:33;;;;;;;;;;;30.60;56.40;;;;;;5042575;28;20362;-68
2023/03/16 09:51:02;;;;;;;;;;;30.50;56.50;;;;;;5043549;28;19953;-69
2023/03/16 09:53:29;;;;;;;;;;;30.50;56.10;;;;;;5042249;28;19959;-69
2023/03/16 09:56:03;;;;;;;;;;;30.40;56.80;;;;;;5043635;28;19923;-68
2023/03/16 09:58:33;;;;;;;;;;;30.40;56.00;;;;;;5041481;28;19917;-70
2023/03/16 10:01:18;;;;;;;;;;;30.40;56.60;;;;;;5043600;28;19996;-69
2023/03/16 10:03:59;;;;;;;;;;;30.30;56.40;;;;;;5042274;28;20422;-68
2023/03/16 10:06:26;;;;;;;;;;;30.30;56.30;;;;;;5041116;28;20275;-68
2023/03/16 10:08:57;;;;;;;;;;;30.30;56.40;;;;;;5042533;28;19917;-67
2023/03/16 10:11:26;;;;;;;;;;;30.20;56.80;;;;;;5040976;28;19909;-69
2023/03/16 10:14:03;;;;;;;;;;;30.20;56.50;;;;;;5042739;28;20015;-68
2023/03/16 10:16:32;;;;;;;;;;;30.20;55.80;;;;;;5035648;28;19924;-68
2023/03/16 10:19:31;;;;;;;;;;;30.10;56.40;;;;;;5032612;28;19913;-67
2023/03/16 10:21:59;;;;;;;;;;;30.10;56.10;;;;;;5031943;28;19932;-68
2023/03/16 10:24:29;;;;;;;;;;;30.10;56.40;;;;;;5021633;28;19916;-68
2023/03/16 10:27:00;;;;;;;;;;;30.10;56.30;;;;;;5035843;28;19920;-70
2023/03/16 10:29:31;;;;;;;;;;;30.00;55.50;;;;;;5028908;28;19953;-69
2023/03/16 10:32:02;;;;;;;;;;;30.00;55.20;;;;;;5056393;28;19913;-69
2023/03/16 10:34:29;;;;;;;;;;;30.00;55.30;;;;;;5021316;28;19909;-69
2023/03/16 10:36:56;;;;;;;;;;;30.00;54.90;;;;;;5035837;28;19913;-69
2023/03/16 10:39:23;;;;;;;;;;;30.00;54.60;;;;;;5030354;28;19909;-66
2023/03/16 10:41:56;;;;;;;;;;;30.00;54.90;;;;;;5057369;28;20451;-68
2023/03/16 10:44:27;;;;;;;;;;;30.00;54.30;;;;;;5022483;28;19909;-69
2023/03/16 10:47:05;;;;;;;;;;;30.00;53.80;;;;;;5035216;28;19921;-68
2023/03/16 10:49:40;;;;;;;;;;;30.00;53.60;;;;;;5028064;28;19909;-67
2023/03/16 10:52:13;;;;;;;;;;;30.00;53.90;;;;;;5024560;28;19913;-68
2023/03/16 10:54:40;;;;;;;;;;;30.00;53.60;;;;;;5020812;28;19913;-68
2023/03/16 10:57:15;;;;;;;;;;;30.00;53.30;;;;;;5037216;28;20289;-65
2023/03/16 10:59:47;;;;;;;;;;;30.00;53.00;;;;;;5029751;28;19961;-68
2023/03/16 11:02:19;;;;;;;;;;;30.00;53.90;;;;;;5056058;28;19959;-68
2023/03/16 11:04:46;;;;;;;;;;;30.00;52.70;;;;;;5020157;28;20297;-69
2023/03/16 11:07:17;;;;;;;;;;;29.90;53.00;;;;;;5037018;28;20354;-69
2023/03/16 11:09:46;;;;;;;;;;;29.90;53.20;;;;;;5030088;28;19999;-68
2023/03/16 11:12:30;;;;;;;;;;;29.90;52.70;;;;;;5024805;28;19940;-68
2023/03/16 11:15:04;;;;;;;;;;;29.90;53.20;;;;;;5021156;28;19917;-70
2023/03/16 11:17:35;;;;;;;;;;;29.80;53.80;;;;;;5039468;28;19913;-67
2023/03/16 11:20:11;;;;;;;;;;;29.70;53.70;;;;;;5031672;28;19913;-69
2023/03/16 11:22:39;;;;;;;;;;;29.60;53.60;;;;;;5020322;28;19960;-70
2023/03/16 11:25:06;;;;;;;;;;;29.60;53.70;;;;;;5021160;28;19952;-69
2023/03/16 11:27:35;;;;;;;;;;;29.60;53.10;;;;;;5039547;28;20011;-69
2023/03/16 11:30:03;;;;;;;;;;;29.50;53.90;;;;;;5032212;28;19912;-69
2023/03/16 11:32:38;;;;;;;;;;;29.40;53.80;;;;;;5023177;28;20680;-69
2023/03/16 11:35:18;;;;;;;;;;;29.30;53.90;;;;;;5018709;28;19909;-70
2023/03/16 11:37:45;;;;;;;;;;;29.20;54.40;;;;;;5022440;28;19956;-69
2023/03/16 11:40:15;;;;;;;;;;;29.20;54.20;;;;;;5027434;28;19920;-69
2023/03/16 11:42:54;;;;;;;;;;;29.10;55.00;;;;;;5041854;28;19941;-68
2023/03/16 11:45:44;;;;;;;;;;;29.00;54.80;;;;;;5041974;28;19913;-69
2023/03/16 11:48:29;;;;;;;;;;;28.90;55.50;;;;;;5040602;28;20523;-67
2023/03/16 11:51:02;;;;;;;;;;;28.80;55.00;;;;;;5040203;28;19909;-68
2023/03/16 11:53:34;;;;;;;;;;;28.70;55.30;;;;;;5042418;28;19908;-68
2023/03/16 11:56:07;;;;;;;;;;;28.70;55.30;;;;;;5040785;28;19908;-66
2023/03/16 11:58:48;;;;;;;;;;;28.70;54.60;;;;;;5042153;28;19909;-68
2023/03/16 12:01:37;;;;;;;;;;;28.70;54.60;;;;;;5038795;28;20353;-66
2023/03/16 12:04:21;;;;;;;;;;;28.70;54.00;;;;;;5036665;28;19913;-66
2023/03/16 12:07:00;;;;;;;;;;;28.80;53.60;;;;;;5038842;28;20007;-68
2023/03/16 12:09:37;;;;;;;;;;;28.80;53.50;;;;;;5031756;28;19923;-68
2023/03/16 12:12:12;;;;;;;;;;;28.90;53.10;;;;;;5037091;28;20098;-68
2023/03/16 12:14:44;;;;;;;;;;;28.90;53.40;;;;;;5041072;28;19913;-68
2023/03/16 12:17:19;;;;;;;;;;;28.90;53.50;;;;;;5024271;28;20263;-67
2023/03/16 12:20:02;;;;;;;;;;;28.90;53.80;;;;;;5028955;28;19913;-68
2023/03/16 12:22:32;;;;;;;;;;;28.80;54.10;;;;;;5052702;28;19909;-67
2023/03/16 12:25:00;;;;;;;;;;;28.80;54.50;;;;;;5020367;28;19917;-68
2023/03/16 12:27:30;;;;;;;;;;;28.80;53.30;;;;;;5025128;28;19921;-65
2023/03/16 12:30:16;;;;;;;;;;;28.70;53.60;;;;;;5040473;28;19909;-67
2023/03/16 12:32:46;;;;;;;;;;;28.70;53.20;;;;;;5040595;28;19913;-67
2023/03/16 12:35:27;;;;;;;;;;;28.70;53.80;;;;;;5039693;28;20350;-67
2023/03/16 12:38:16;;;;;;;;;;;28.70;53.30;;;;;;5041607;28;19916;-66
2023/03/16 12:40:47;;;;;;;;;;;28.70;53.80;;;;;;5041377;28;19925;-67
2023/03/16 12:43:32;;;;;;;;;;;28.60;53.90;;;;;;5036261;28;19918;-66
2023/03/16 12:46:03;;;;;;;;;;;28.50;54.50;;;;;;5039645;28;19916;-66
2023/03/16 12:48:36;;;;;;;;;;;28.50;54.90;;;;;;5040426;28;20007;-67
2023/03/16 12:51:06;;;;;;;;;;;28.40;54.60;;;;;;5039766;28;19962;-67
2023/03/16 12:53:52;;;;;;;;;;;28.30;55.20;;;;;;5040609;28;20031;-67
2023/03/16 12:56:29;;;;;;;;;;;28.30;55.80;;;;;;5036510;28;19916;-67
2023/03/16 12:58:57;;;;;;;;;;;28.20;55.90;;;;;;5033925;28;19987;-66
2023/03/16 13:01:28;;;;;;;;;;;28.10;55.80;;;;;;5037133;28;19913;-65
2023/03/16 13:04:06;;;;;;;;;;;28.10;57.10;;;;;;5039196;28;20645;-67
2023/03/16 13:06:34;;;;;;;;;;;28.00;56.70;;;;;;5038214;28;19924;-67
2023/03/16 13:09:03;;;;;;;;;;;27.90;56.90;;;;;;5039125;28;19909;-67
2023/03/16 13:11:40;;;;;;;;;;;27.80;57.40;;;;;;5038186;28;20012;-67
2023/03/16 13:14:11;;;;;;;;;;;27.80;56.80;;;;;;5041951;28;19909;-68
2023/03/16 13:16:39;;;;;;;;;;;27.70;57.10;;;;;;5034634;28;19917;-67
2023/03/16 13:19:26;;;;;;;;;;;27.60;57.70;;;;;;5035996;28;20015;-68
2023/03/16 13:22:18;;;;;;;;;;;27.50;59.00;;;;;;5023100;28;19960;-68
2023/03/16 13:25:05;;;;;;;;;;;27.50;59.40;;;;;;5032273;28;19916;-66
2023/03/16 13:27:35;;;;;;;;;;;27.30;58.90;;;;;;5061247;28;19917;-67
2023/03/16 13:30:15;;;;;;;;;;;27.20;60.20;;;;;;5063153;28;19908;-67
2023/03/16 13:32:41;;;;;;;;;;;27.10;60.90;;;;;;5063439;28;20357;-67
2023/03/16 13:35:12;;;;;;;;;;;27.00;61.00;;;;;;5063508;28;19908;-68
2023/03/16 13:37:40;;;;;;;;;;;26.90;60.40;;;;;;5047063;28;19912;-67
2023/03/16 13:40:21;;;;;;;;;;;26.80;59.90;;;;;;5043618;28;19983;-68
2023/03/16 13:42:53;;;;;;;;;;;26.80;60.90;;;;;;5044016;28;19955;-68
2023/03/16 13:45:22;;;;;;;;;;;26.70;61.10;;;;;;5042656;28;20007;-67
2023/03/16 13:47:49;;;;;;;;;;;26.70;62.40;;;;;;5057560;28;19935;-67
2023/03/16 13:50:18;;;;;;;;;;;26.60;62.40;;;;;;5062233;28;19916;-67
2023/03/16 13:52:51;;;;;;;;;;;26.50;62.60;;;;;;5063047;28;19934;-67
2023/03/16 13:55:21;;;;;;;;;;;26.40;62.40;;;;;;5062578;28;20292;-67
2023/03/16 13:57:48;;;;;;;;;;;26.40;63.60;;;;;;5063420;28;19908;-66
2023/03/16 14:00:15;;;;;;;;;;;26.20;63.40;;;;;;5062567;28;20966;-68
2023/03/16 14:02:43;;;;;;;;;;;26.20;62.60;;;;;;5063557;28;19938;-67
2023/03/16 14:05:29;;;;;;;;;;;26.10;64.00;;;;;;5063644;28;19913;-68
2023/03/16 14:07:58;;;;;;;;;;;26.00;64.60;;;;;;5081720;28;19932;-67
2023/03/16 14:10:27;;;;;;;;;;;26.00;65.20;;;;;;5042131;28;19909;-67
2023/03/16 14:12:54;;;;;;;;;;;25.90;65.00;;;;;;5042832;28;19909;-67
2023/03/16 14:15:22;;;;;;;;;;;25.80;65.50;;;;;;5041849;28;20058;-67
2023/03/16 14:17:49;;;;;;;;;;;25.70;66.00;;;;;;5056967;28;19919;-65
2023/03/16 14:20:24;;;;;;;;;;;25.60;65.20;;;;;;5062534;28;20238;-67
2023/03/16 14:22:52;;;;;;;;;;;25.50;65.80;;;;;;5062654;28;19920;-68
2023/03/16 14:25:22;;;;;;;;;;;25.40;66.60;;;;;;5061681;28;19909;-67
2023/03/16 14:27:57;;;;;;;;;;;25.40;66.90;;;;;;5062612;28;19916;-68
2023/03/16 14:30:26;;;;;;;;;;;25.40;67.00;;;;;;5061524;28;19962;-66